Time;durP1;ratioP1;P1;durP2;ratioP2;P2;SDS_P1;SDS_P2;PMS_P1;PMS_P2;Temp;Humidity;BMP_temperature;BMP_pressure;BME280_temperature;BME280_humidity;BME280_pressure;Samples;Min_cycle;Max_cycle;Signal;HPM_P1;HPM_P2
2022/06/13 00:01:56;;;;;;;;;;;;;;;21.19;41.81;100355.53;10373215;28;20023;-61
2022/06/13 00:06:57;;;;;;;;;;;;;;;21.14;42.07;100351.75;10374397;28;19952;-61
2022/06/13 00:11:58;;;;;;;;;;;;;;;21.06;42.23;100355.38;10371023;28;19925;-61
2022/06/13 00:17:01;;;;;;;;;;;;;;;20.96;42.74;100357.56;10372063;28;19929;-62
2022/06/13 00:22:02;;;;;;;;;;;;;;;20.84;42.88;100368.84;10371395;28;19947;-61
2022/06/13 00:27:04;;;;;;;;;;;;;;;20.77;42.99;100367.91;10372805;28;19929;-62
2022/06/13 00:32:06;;;;;;;;;;;;;;;20.74;43.37;100362.88;10373255;28;19929;-63
2022/06/13 00:37:07;;;;;;;;;;;;;;;20.70;43.34;100376.97;10373967;28;19936;-61
2022/06/13 00:42:09;;;;;;;;;;;;;;;20.63;43.69;100376.88;10373528;28;19931;-62
2022/06/13 00:47:11;;;;;;;;;;;;;;;20.58;43.64;100385.53;10375156;28;19932;-62
2022/06/13 00:52:21;;;;;;;;;;;;;;;20.51;44.19;100386.44;10377832;28;19929;-62
2022/06/13 00:57:23;;;;;;;;;;;;;;;20.18;44.73;100362.47;10380377;28;19952;-62
2022/06/13 01:02:25;;;;;;;;;;;;;;;20.36;44.48;100392.69;10374138;28;20289;-63
2022/06/13 01:07:27;;;;;;;;;;;;;;;20.34;45.12;100394.72;10387361;28;19933;-62
2022/06/13 01:12:29;;;;;;;;;;;;;;;20.31;44.75;100392.38;10370353;28;19933;-61
2022/06/13 01:17:39;;;;;;;;;;;;;;;20.26;44.96;100389.41;10371778;28;19925;-64
2022/06/13 01:22:59;;;;;;;;;;;;;;;20.19;45.44;100393.88;10369677;28;22743;-61
2022/06/13 01:28:00;;;;;;;;;;;;;;;20.11;45.49;100401.00;10370288;28;19947;-60
2022/06/13 01:33:02;;;;;;;;;;;;;;;20.04;45.85;100410.91;10370153;28;20031;-61
2022/06/13 01:38:09;;;;;;;;;;;;;;;19.93;45.90;100408.59;10374067;28;19935;-62
2022/06/13 01:43:13;;;;;;;;;;;;;;;19.88;46.87;100416.44;10370537;28;20392;-63
2022/06/13 01:48:24;;;;;;;;;;;;;;;19.83;46.34;100408.00;10368967;28;19937;-63
2022/06/13 01:53:32;;;;;;;;;;;;;;;19.70;46.71;100414.81;10367550;28;20052;-63
2022/06/13 01:58:50;;;;;;;;;;;;;;;19.61;46.85;100421.31;10367847;28;19929;-62
2022/06/13 02:03:58;;;;;;;;;;;;;;;19.55;47.20;100405.81;10369210;28;20024;-62
2022/06/13 02:09:01;;;;;;;;;;;;;;;19.48;47.24;100400.28;10367806;28;20499;-62
2022/06/13 02:14:19;;;;;;;;;;;;;;;19.47;47.63;100398.63;10369880;28;20458;-61
2022/06/13 02:19:20;;;;;;;;;;;;;;;19.42;47.25;100412.63;10368951;28;19929;-61
2022/06/13 02:24:25;;;;;;;;;;;;;;;19.41;47.03;100410.09;10369162;28;20310;-61
2022/06/13 02:29:33;;;;;;;;;;;;;;;19.42;47.06;100404.53;10369062;28;19968;-61
2022/06/13 02:34:37;;;;;;;;;;;;;;;19.28;46.89;100388.28;10368462;28;19980;-62
2022/06/13 02:39:48;;;;;;;;;;;;;;;19.38;46.98;100403.22;10368323;28;20006;-62
2022/06/13 02:44:51;;;;;;;;;;;;;;;19.37;47.15;100398.00;10368498;28;20577;-62
2022/06/13 02:50:06;;;;;;;;;;;;;;;19.35;47.90;100387.38;10368279;28;19975;-61
2022/06/13 02:55:08;;;;;;;;;;;;;;;19.32;47.46;100390.44;10368150;28;19998;-62
2022/06/13 03:00:19;;;;;;;;;;;;;;;19.19;47.57;100396.41;10367446;28;19931;-62
2022/06/13 03:05:39;;;;;;;;;;;;;;;18.77;48.09;100396.72;10369205;28;19935;-63
2022/06/13 03:11:01;;;;;;;;;;;;;;;19.05;48.51;100398.00;10366361;28;20175;-62
2022/06/13 03:16:21;;;;;;;;;;;;;;;19.17;47.52;100397.59;10375889;28;20445;-63
2022/06/13 03:21:27;;;;;;;;;;;;;;;19.21;47.14;100415.09;10375690;28;20739;-63
2022/06/13 03:26:32;;;;;;;;;;;;;;;19.21;46.83;100418.63;10375150;28;19933;-63
2022/06/13 03:31:37;;;;;;;;;;;;;;;19.20;46.60;100427.78;10377560;28;20071;-62
2022/06/13 03:36:54;;;;;;;;;;;;;;;19.19;46.62;100431.47;10376014;28;20517;-61
2022/06/13 03:41:58;;;;;;;;;;;;;;;19.21;46.25;100436.69;10365783;28;19940;-61
2022/06/13 03:47:04;;;;;;;;;;;;;;;19.20;45.47;100443.09;10376444;28;19925;-61
2022/06/13 03:52:07;;;;;;;;;;;;;;;19.09;44.51;100425.44;10374860;28;20011;-62
2022/06/13 03:57:15;;;;;;;;;;;;;;;19.27;44.63;100446.78;10375858;28;20319;-62
2022/06/13 04:02:19;;;;;;;;;;;;;;;19.18;43.77;100453.25;10374596;28;19925;-62
2022/06/13 04:07:21;;;;;;;;;;;;;;;19.22;44.57;100454.56;10375267;28;19929;-61
2022/06/13 04:12:32;;;;;;;;;;;;;;;19.20;44.24;100454.75;10373962;28;20416;-61
2022/06/13 04:17:45;;;;;;;;;;;;;;;19.24;44.13;100461.47;10369811;28;19955;-61
2022/06/13 04:22:46;;;;;;;;;;;;;;;19.17;44.09;100456.94;10371786;28;20864;-61
2022/06/13 04:28:07;;;;;;;;;;;;;;;19.20;45.08;100467.38;10373959;28;19929;-61
2022/06/13 04:33:18;;;;;;;;;;;;;;;19.20;44.87;100462.84;10344551;28;19943;-61
2022/06/13 04:38:21;;;;;;;;;;;;;;;19.29;45.22;100474.47;10374387;28;19936;-62
2022/06/13 04:43:27;;;;;;;;;;;;;;;18.94;44.93;100479.28;10374707;28;20020;-61
2022/06/13 04:48:30;;;;;;;;;;;;;;;19.06;45.92;100477.88;10381564;28;19940;-61
2022/06/13 04:53:40;;;;;;;;;;;;;;;18.71;44.58;100477.28;10378530;28;20040;-61
2022/06/13 04:58:42;;;;;;;;;;;;;;;18.56;45.26;100487.06;10373472;28;19933;-61
2022/06/13 05:03:46;;;;;;;;;;;;;;;18.58;46.60;100484.22;10379111;28;19935;-61
2022/06/13 05:08:52;;;;;;;;;;;;;;;18.37;45.44;100494.50;10372139;28;19929;-61
2022/06/13 05:13:57;;;;;;;;;;;;;;;18.54;46.02;100464.84;10372100;28;19929;-61
2022/06/13 05:19:08;;;;;;;;;;;;;;;18.88;44.61;100491.59;10372011;28;19925;-62
2022/06/13 05:24:23;;;;;;;;;;;;;;;18.77;45.61;100499.19;10372408;28;20681;-62
2022/06/13 05:29:25;;;;;;;;;;;;;;;18.64;46.57;100515.88;10372603;28;19929;-61
2022/06/13 05:34:32;;;;;;;;;;;;;;;18.78;44.95;100512.50;10373877;28;19933;-61
2022/06/13 05:39:35;;;;;;;;;;;;;;;18.94;45.05;100522.44;10368966;28;19932;-60
2022/06/13 05:44:36;;;;;;;;;;;;;;;19.11;46.13;100527.78;10370494;28;20511;-60
2022/06/13 05:49:38;;;;;;;;;;;;;;;19.04;44.39;100516.84;10371099;28;20028;-61
2022/06/13 05:54:39;;;;;;;;;;;;;;;19.06;44.38;100518.34;10371488;28;19939;-62
2022/06/13 05:59:40;;;;;;;;;;;;;;;19.00;44.80;100521.75;10368748;28;19939;-62
2022/06/13 06:04:41;;;;;;;;;;;;;;;18.93;43.65;100488.41;10372756;28;19933;-62
2022/06/13 06:09:43;;;;;;;;;;;;;;;19.01;44.03;100512.66;10369785;28;19996;-61
2022/06/13 06:14:44;;;;;;;;;;;;;;;19.08;43.84;100519.03;10367550;28;19928;-63
2022/06/13 06:19:45;;;;;;;;;;;;;;;19.08;43.52;100524.44;10369451;28;19932;-61
2022/06/13 06:24:49;;;;;;;;;;;;;;;19.20;43.52;100522.22;10368875;28;20281;-62
2022/06/13 06:29:50;;;;;;;;;;;;;;;19.31;43.68;100531.78;10369096;28;20320;-63
2022/06/13 06:34:51;;;;;;;;;;;;;;;19.38;42.82;100535.47;10372737;28;20036;-61
2022/06/13 06:39:52;;;;;;;;;;;;;;;19.73;42.50;100532.47;10370143;28;20419;-61
2022/06/13 06:44:54;;;;;;;;;;;;;;;19.98;41.59;100541.28;10369487;28;19929;-63
2022/06/13 06:49:55;;;;;;;;;;;;;;;20.20;42.49;100538.78;10368243;28;19952;-61
2022/06/13 07:00:19;;;;;;;;;;;;;;;20.49;41.42;100532.63;10369223;28;19929;-61
2022/06/13 07:05:20;;;;;;;;;;;;;;;20.71;41.08;100530.97;10370803;28;20379;-61
2022/06/13 07:10:21;;;;;;;;;;;;;;;20.60;39.92;100528.69;10370575;28;19990;-61
2022/06/13 07:15:23;;;;;;;;;;;;;;;20.54;40.39;100532.13;10370803;28;19925;-61
2022/06/13 07:20:24;;;;;;;;;;;;;;;20.76;39.50;100550.19;10370598;28;19925;-62
2022/06/13 07:25:30;;;;;;;;;;;;;;;20.94;38.64;100543.59;10384710;28;19937;-62
2022/06/13 07:30:32;;;;;;;;;;;;;;;21.23;35.94;100552.75;10370217;28;20023;-63
2022/06/13 07:35:33;;;;;;;;;;;;;;;21.34;37.47;100547.72;10369448;28;19929;-61
2022/06/13 07:40:36;;;;;;;;;;;;;;;21.77;37.71;100549.78;10369461;28;19972;-61
2022/06/13 07:45:39;;;;;;;;;;;;;;;21.54;34.89;100553.44;10367499;28;20065;-61
2022/06/13 07:50:51;;;;;;;;;;;;;;;21.54;34.22;100553.44;10369905;28;19925;-61
2022/06/13 07:55:52;;;;;;;;;;;;;;;21.43;34.83;100551.19;10369782;28;20241;-63
2022/06/13 08:00:53;;;;;;;;;;;;;;;21.25;36.24;100559.66;10374375;28;19925;-63
2022/06/13 08:05:55;;;;;;;;;;;;;;;21.48;36.39;100559.59;10375621;28;20287;-62
2022/06/13 08:10:58;;;;;;;;;;;;;;;21.98;35.97;100564.38;10374869;28;19929;-63
2022/06/13 08:16:00;;;;;;;;;;;;;;;21.92;35.99;100575.97;10376995;28;19929;-63
2022/06/13 08:21:02;;;;;;;;;;;;;;;22.19;35.39;100566.31;10375181;28;19925;-62
2022/06/13 08:26:03;;;;;;;;;;;;;;;22.20;34.79;100566.09;10376870;28;19941;-61
2022/06/13 08:31:06;;;;;;;;;;;;;;;22.48;34.93;100578.91;10375702;28;19936;-62
2022/06/13 08:36:08;;;;;;;;;;;;;;;22.35;34.60;100576.06;10378378;28;19929;-62
2022/06/13 08:41:13;;;;;;;;;;;;;;;22.65;35.15;100581.38;10382786;28;19936;-63
2022/06/13 08:46:20;;;;;;;;;;;;;;;22.79;35.15;100588.59;10384962;28;20315;-62
2022/06/13 08:51:31;;;;;;;;;;;;;;;23.21;35.49;100597.72;10376399;28;19936;-62
2022/06/13 08:56:35;;;;;;;;;;;;;;;23.42;34.85;100593.22;10374690;28;19929;-62
2022/06/13 09:01:38;;;;;;;;;;;;;;;23.44;35.47;100604.75;10373663;28;19933;-62
2022/06/13 09:06:51;;;;;;;;;;;;;;;23.77;34.80;100595.94;10373342;28;19929;-62
2022/06/13 09:11:56;;;;;;;;;;;;;;;23.54;34.58;100597.09;10372445;28;19929;-61
2022/06/13 09:17:12;;;;;;;;;;;;;;;23.53;34.15;100598.13;10374359;28;19925;-61
2022/06/13 09:22:19;;;;;;;;;;;;;;;23.68;33.05;100602.59;10372378;28;20019;-62
2022/06/13 09:27:33;;;;;;;;;;;;;;;22.95;33.47;100609.16;10372910;28;20034;-62
2022/06/13 09:32:55;;;;;;;;;;;;;;;23.57;32.78;100601.25;10370729;28;19932;-62
2022/06/13 09:38:05;;;;;;;;;;;;;;;23.52;32.82;100588.28;10372434;28;20027;-61
2022/06/13 09:43:25;;;;;;;;;;;;;;;23.60;30.81;100612.59;10369642;28;19937;-61
2022/06/13 09:48:43;;;;;;;;;;;;;;;23.17;32.05;100607.28;10369999;28;19929;-62
2022/06/13 09:53:45;;;;;;;;;;;;;;;23.18;32.35;100608.97;10372456;28;19925;-62
2022/06/13 09:58:55;;;;;;;;;;;;;;;23.47;32.63;100613.34;10371679;28;20036;-62
2022/06/13 10:04:01;;;;;;;;;;;;;;;23.27;32.49;100607.78;10370741;28;19982;-61
2022/06/13 10:09:15;;;;;;;;;;;;;;;24.05;32.46;100603.19;10370622;28;19929;-60
2022/06/13 10:14:27;;;;;;;;;;;;;;;24.35;31.86;100587.38;10370425;28;19935;-61
2022/06/13 10:19:28;;;;;;;;;;;;;;;24.14;31.50;100593.78;10370109;28;19939;-61
2022/06/13 10:24:36;;;;;;;;;;;;;;;24.14;31.94;100596.50;10372838;28;20011;-61
2022/06/13 10:30:00;;;;;;;;;;;;;;;24.35;31.50;100593.66;10371908;28;19939;-61
2022/06/13 10:35:10;;;;;;;;;;;;;;;24.02;31.95;100603.59;10374193;28;20011;-61
2022/06/13 10:40:13;;;;;;;;;;;;;;;24.08;32.41;100586.44;10377152;28;19929;-62
2022/06/13 10:45:15;;;;;;;;;;;;;;;24.33;32.00;100595.72;10372702;28;19929;-61
2022/06/13 10:50:23;;;;;;;;;;;;;;;24.28;31.60;100584.63;10368416;28;19965;-61
2022/06/13 10:55:26;;;;;;;;;;;;;;;24.38;31.38;100591.56;10367925;28;20390;-61
2022/06/13 11:00:29;;;;;;;;;;;;;;;24.79;31.53;100582.44;10366374;28;19931;-62
2022/06/13 11:05:30;;;;;;;;;;;;;;;23.94;32.75;100602.72;10368183;28;19937;-61
2022/06/13 11:10:35;;;;;;;;;;;;;;;24.37;32.71;100595.34;10368736;28;20464;-62
2022/06/13 11:31:49;;;;;;;;;;;;;;;25.33;30.87;100599.59;10370378;28;20387;-62
2022/06/13 11:36:58;;;;;;;;;;;;;;;24.72;32.27;100587.03;10376601;28;20527;-64
2022/06/13 11:42:00;;;;;;;;;;;;;;;25.34;31.42;100599.38;10374541;28;19929;-62
2022/06/13 11:47:02;;;;;;;;;;;;;;;24.72;31.71;100598.75;10375922;28;19929;-61
2022/06/13 11:52:05;;;;;;;;;;;;;;;24.15;32.05;100603.63;10372237;28;20008;-62
2022/06/13 11:57:12;;;;;;;;;;;;;;;23.94;32.94;100608.16;10380019;28;20606;-66
2022/06/13 12:02:18;;;;;;;;;;;;;;;23.77;32.49;100607.63;10380109;28;20063;-62
2022/06/13 12:07:22;;;;;;;;;;;;;;;23.91;32.96;100608.56;10374353;28;20731;-63
2022/06/13 12:12:39;;;;;;;;;;;;;;;24.53;31.97;100603.09;10372032;28;19980;-62
2022/06/13 12:17:51;;;;;;;;;;;;;;;25.70;31.20;100605.34;10370577;28;19972;-63
2022/06/13 12:22:57;;;;;;;;;;;;;;;25.98;29.81;100604.19;10374143;28;19981;-63
2022/06/13 12:28:04;;;;;;;;;;;;;;;26.25;29.81;100589.38;10374150;28;19936;-63
2022/06/13 12:33:14;;;;;;;;;;;;;;;26.14;29.68;100594.69;10375817;28;20301;-63
2022/06/13 12:38:15;;;;;;;;;;;;;;;25.58;31.36;100591.53;10373284;28;19932;-61
2022/06/13 12:43:20;;;;;;;;;;;;;;;25.48;31.28;100596.63;10373196;28;20132;-63
2022/06/13 12:48:34;;;;;;;;;;;;;;;25.38;31.23;100594.31;10373444;28;19933;-62
2022/06/13 12:53:38;;;;;;;;;;;;;;;25.05;31.89;100592.44;10374093;28;19933;-67
2022/06/13 12:58:59;;;;;;;;;;;;;;;24.87;32.26;100587.66;10359501;28;19955;-61
2022/06/13 13:04:03;;;;;;;;;;;;;;;24.83;31.20;100579.06;10371781;28;20041;-61
2022/06/13 13:09:13;;;;;;;;;;;;;;;24.69;31.39;100583.66;10369882;28;19929;-61
2022/06/13 13:14:14;;;;;;;;;;;;;;;25.24;30.14;100593.50;10369944;28;19951;-62
2022/06/13 13:19:21;;;;;;;;;;;;;;;25.43;30.48;100591.78;10367411;28;20386;-62
2022/06/13 13:24:52;;;;;;;;;;;;;;;25.20;30.27;100590.34;10371017;28;19929;-60
2022/06/13 13:29:56;;;;;;;;;;;;;;;25.09;30.49;100598.34;10356472;28;19925;-61
2022/06/13 13:35:10;;;;;;;;;;;;;;;24.40;31.21;100594.91;10386876;28;19941;-62
2022/06/13 13:40:21;;;;;;;;;;;;;;;24.87;30.92;100595.81;10372248;28;19953;-63
2022/06/13 13:45:32;;;;;;;;;;;;;;;24.80;28.33;100593.09;10372659;28;19965;-61
2022/06/13 13:50:39;;;;;;;;;;;;;;;24.14;29.21;100597.38;10371577;28;19935;-62
2022/06/13 13:55:44;;;;;;;;;;;;;;;24.18;29.98;100595.06;10371824;28;20809;-62
2022/06/13 14:00:48;;;;;;;;;;;;;;;24.30;30.34;100595.31;10370519;28;19995;-61
2022/06/13 14:06:21;;;;;;;;;;;;;;;24.41;28.08;100597.44;10371585;28;20387;-62
2022/06/13 14:11:24;;;;;;;;;;;;;;;24.34;27.98;100586.53;10335285;28;19929;-62
2022/06/13 14:16:25;;;;;;;;;;;;;;;24.56;28.32;100589.09;10385522;28;19935;-62
2022/06/13 14:21:31;;;;;;;;;;;;;;;24.74;28.61;100574.91;10370726;28;19929;-62
2022/06/13 14:26:34;;;;;;;;;;;;;;;24.88;29.64;100581.16;10367929;28;19960;-62
2022/06/13 14:32:05;;;;;;;;;;;;;;;24.72;29.37;100581.59;10374199;28;20540;-62
2022/06/13 14:37:09;;;;;;;;;;;;;;;24.88;29.51;100576.56;10360578;28;19936;-61
2022/06/13 14:42:16;;;;;;;;;;;;;;;25.16;29.27;100582.81;10370866;28;19928;-62
2022/06/13 14:47:43;;;;;;;;;;;;;;;25.26;29.34;100576.94;10369519;28;19933;-61
2022/06/13 14:53:05;;;;;;;;;;;;;;;25.39;28.15;100583.22;10366367;28;19928;-63
2022/06/13 14:58:06;;;;;;;;;;;;;;;24.77;28.66;100571.75;10367690;28;19935;-64
2022/06/13 15:03:08;;;;;;;;;;;;;;;24.64;29.43;100575.28;10369975;28;19929;-61
2022/06/13 15:08:20;;;;;;;;;;;;;;;24.97;29.26;100574.44;10371040;28;19936;-62
2022/06/13 15:13:26;;;;;;;;;;;;;;;25.20;29.35;100567.72;10374558;28;20576;-62
2022/06/13 15:18:31;;;;;;;;;;;;;;;24.83;29.89;100570.06;10375710;28;19933;-62
2022/06/13 15:23:34;;;;;;;;;;;;;;;24.68;30.46;100576.56;10376011;28;19947;-61
2022/06/13 15:28:55;;;;;;;;;;;;;;;24.51;30.82;100577.97;10376106;28;20522;-61
2022/06/13 15:34:07;;;;;;;;;;;;;;;24.47;31.94;100579.44;10374190;28;19939;-62
2022/06/13 15:39:10;;;;;;;;;;;;;;;24.88;31.54;100578.44;10373773;28;20309;-62
2022/06/13 15:44:17;;;;;;;;;;;;;;;24.79;31.93;100587.88;10376153;28;19963;-63
2022/06/13 15:49:22;;;;;;;;;;;;;;;24.28;30.05;100587.34;10375498;28;19925;-62
2022/06/13 15:54:23;;;;;;;;;;;;;;;24.32;30.58;100587.75;10363897;28;19925;-62
2022/06/13 15:59:25;;;;;;;;;;;;;;;24.33;29.84;100579.41;10373546;28;20483;-62
2022/06/13 16:04:27;;;;;;;;;;;;;;;24.10;29.60;100589.81;10376331;28;19944;-61
2022/06/13 16:09:30;;;;;;;;;;;;;;;23.71;29.63;100585.88;10374669;28;20544;-62
2022/06/13 16:14:33;;;;;;;;;;;;;;;23.72;43.67;100598.41;10361749;28;20020;-62
2022/06/13 16:19:35;;;;;;;;;;;;;;;23.77;29.42;100590.50;10336629;28;19929;-63
2022/06/13 16:24:39;;;;;;;;;;;;;;;23.77;30.63;100598.66;10348430;28;19936;-63
2022/06/13 16:29:42;;;;;;;;;;;;;;;23.82;31.70;100593.44;10349470;28;20940;-62
2022/06/13 16:34:51;;;;;;;;;;;;;;;23.81;31.41;100575.47;10353064;28;19939;-61
2022/06/13 16:39:53;;;;;;;;;;;;;;;23.70;31.35;100597.78;10352417;28;19929;-60
2022/06/13 16:45:06;;;;;;;;;;;;;;;23.64;31.26;100597.56;10352260;28;19925;-60
2022/06/13 16:50:07;;;;;;;;;;;;;;;23.35;31.87;100604.06;10348335;28;20899;-59
2022/06/13 16:55:10;;;;;;;;;;;;;;;23.02;31.92;100610.06;10349525;28;19947;-60
2022/06/13 17:00:33;;;;;;;;;;;;;;;23.28;31.44;100609.47;10348060;28;19963;-61
2022/06/13 17:05:37;;;;;;;;;;;;;;;23.09;31.42;100615.56;10352103;28;20060;-62
2022/06/13 17:10:48;;;;;;;;;;;;;;;22.94;31.32;100616.50;10350310;28;20392;-61
2022/06/13 17:15:52;;;;;;;;;;;;;;;22.78;31.27;100614.03;10352239;28;19925;-61
2022/06/13 17:20:55;;;;;;;;;;;;;;;22.82;31.46;100609.91;10343165;28;20048;-61
2022/06/13 17:36:44;;;;;;;;;;;;;;;22.58;31.46;100620.13;10339340;28;20891;-62
2022/06/13 17:41:45;;;;;;;;;;;;;;;22.44;31.75;100621.00;10341354;28;19939;-61
2022/06/13 17:46:47;;;;;;;;;;;;;;;22.45;32.18;100619.16;10341293;28;19929;-62
2022/06/13 17:51:48;;;;;;;;;;;;;;;22.43;32.53;100616.66;10344346;28;19925;-61
2022/06/13 17:56:51;;;;;;;;;;;;;;;22.46;32.58;100621.69;10351416;28;20206;-61
2022/06/13 18:01:52;;;;;;;;;;;;;;;22.42;32.67;100623.91;10346433;28;19956;-61
2022/06/13 18:06:55;;;;;;;;;;;;;;;22.38;32.82;100625.34;10347994;28;20467;-60
2022/06/13 18:11:57;;;;;;;;;;;;;;;22.28;32.92;100623.94;10348259;28;19929;-61
2022/06/13 18:16:59;;;;;;;;;;;;;;;22.13;32.76;100622.13;10348365;28;19933;-61
2022/06/13 18:22:01;;;;;;;;;;;;;;;22.08;32.59;100624.53;10347994;28;20016;-61
2022/06/13 18:27:09;;;;;;;;;;;;;;;21.90;33.35;100635.78;10366774;28;19948;-63
2022/06/13 18:32:11;;;;;;;;;;;;;;;21.81;33.13;100639.63;10339581;28;19975;-61
2022/06/13 18:37:12;;;;;;;;;;;;;;;21.77;32.75;100644.59;10349780;28;19969;-62
2022/06/13 18:42:15;;;;;;;;;;;;;;;21.69;32.87;100637.41;10345113;28;19933;-61
2022/06/13 18:47:22;;;;;;;;;;;;;;;21.46;33.03;100644.75;10347830;28;19936;-62
2022/06/13 18:52:28;;;;;;;;;;;;;;;21.28;34.04;100648.63;10346050;28;19929;-62
2022/06/13 18:57:29;;;;;;;;;;;;;;;21.43;34.25;100643.25;10346201;28;20307;-62
2022/06/13 19:02:38;;;;;;;;;;;;;;;21.43;33.93;100642.41;10359796;28;19940;-62
2022/06/13 19:07:40;;;;;;;;;;;;;;;21.13;34.07;100648.59;10347854;28;20918;-61
2022/06/13 19:12:45;;;;;;;;;;;;;;;21.05;34.26;100656.81;10346263;28;20596;-62
2022/06/13 19:17:46;;;;;;;;;;;;;;;21.09;34.72;100659.97;10347390;28;19937;-66
2022/06/13 19:22:48;;;;;;;;;;;;;;;21.06;35.69;100663.06;10341686;28;20514;-65
2022/06/13 19:27:50;;;;;;;;;;;;;;;21.01;35.13;100660.91;10340099;28;20319;-63
2022/06/13 19:32:54;;;;;;;;;;;;;;;20.91;35.19;100672.00;10338500;28;19936;-66
2022/06/13 19:37:57;;;;;;;;;;;;;;;20.92;35.49;100679.06;10339442;28;20327;-66
2022/06/13 19:43:00;;;;;;;;;;;;;;;20.79;35.17;100685.09;10341759;28;19929;-63
2022/06/13 19:48:01;;;;;;;;;;;;;;;20.76;34.78;100690.00;10334327;28;19929;-63
2022/06/13 19:53:03;;;;;;;;;;;;;;;20.71;35.65;100703.25;10356551;28;19939;-62
2022/06/13 19:58:05;;;;;;;;;;;;;;;20.51;35.35;100703.66;10350564;28;19936;-62
2022/06/13 20:03:09;;;;;;;;;;;;;;;20.40;35.49;100707.63;10348510;28;20501;-62
2022/06/13 20:08:25;;;;;;;;;;;;;;;20.51;35.90;100719.03;10348687;28;19929;-62
2022/06/13 20:13:28;;;;;;;;;;;;;;;20.51;35.49;100722.59;10347076;28;20190;-62
2022/06/13 20:18:31;;;;;;;;;;;;;;;20.44;35.46;100727.84;10347515;28;20461;-62
2022/06/13 20:23:32;;;;;;;;;;;;;;;20.39;36.02;100726.72;10343023;28;19936;-62
2022/06/13 20:28:34;;;;;;;;;;;;;;;20.26;35.96;100733.50;10347181;28;20548;-62
2022/06/13 20:33:43;;;;;;;;;;;;;;;20.23;36.35;100733.84;10345936;28;19933;-62
2022/06/13 20:38:45;;;;;;;;;;;;;;;20.20;36.42;100736.06;10343667;28;19929;-63
2022/06/13 20:43:47;;;;;;;;;;;;;;;20.13;36.20;100734.06;10347008;28;19932;-62
2022/06/13 20:48:55;;;;;;;;;;;;;;;20.06;36.68;100738.50;10345948;28;19971;-61
2022/06/13 20:53:58;;;;;;;;;;;;;;;19.97;37.14;100734.13;10346841;28;19929;-62
2022/06/13 20:58:59;;;;;;;;;;;;;;;19.95;36.74;100741.56;10346073;28;19940;-62
2022/06/13 21:04:02;;;;;;;;;;;;;;;19.91;37.27;100748.34;10347174;28;20372;-61
2022/06/13 21:14:24;;;;;;;;;;;;;;;19.69;38.56;100748.00;10346302;28;20371;-62
2022/06/13 21:19:25;;;;;;;;;;;;;;;19.67;38.13;100758.13;10366894;28;19929;-62
2022/06/13 21:24:29;;;;;;;;;;;;;;;19.67;38.61;100746.50;10374762;28;20012;-62
2022/06/13 21:29:32;;;;;;;;;;;;;;;19.60;38.41;100751.72;10374093;28;19929;-61
2022/06/13 21:34:34;;;;;;;;;;;;;;;19.56;38.52;100753.06;10375248;28;19925;-62
2022/06/13 21:39:35;;;;;;;;;;;;;;;19.47;38.77;100751.41;10373370;28;19939;-61
2022/06/13 21:44:38;;;;;;;;;;;;;;;19.39;38.57;100747.69;10375135;28;20690;-62
2022/06/13 21:49:39;;;;;;;;;;;;;;;19.33;39.01;100748.34;10373456;28;19929;-62
2022/06/13 21:54:41;;;;;;;;;;;;;;;19.27;39.11;100749.03;10372334;28;19933;-63
2022/06/13 21:59:42;;;;;;;;;;;;;;;19.20;39.12;100758.81;10368522;28;19929;-62
2022/06/13 22:04:44;;;;;;;;;;;;;;;19.14;39.91;100754.09;10367934;28;19925;-61
2022/06/13 22:09:45;;;;;;;;;;;;;;;19.05;39.70;100756.78;10368961;28;20180;-61
2022/06/13 22:14:49;;;;;;;;;;;;;;;18.98;39.93;100760.31;10366335;28;20578;-62
2022/06/13 22:19:50;;;;;;;;;;;;;;;18.91;39.98;100765.53;10381278;28;19973;-62
2022/06/13 22:24:51;;;;;;;;;;;;;;;18.83;40.17;100757.41;10370226;28;20030;-62
2022/06/13 22:29:53;;;;;;;;;;;;;;;18.76;40.40;100750.97;10367735;28;20173;-62
2022/06/13 22:34:54;;;;;;;;;;;;;;;18.67;40.69;100759.03;10370145;28;19924;-62
2022/06/13 22:39:55;;;;;;;;;;;;;;;18.60;40.95;100759.84;10364302;28;19929;-63
2022/06/13 22:44:57;;;;;;;;;;;;;;;18.53;41.21;100768.59;10368615;28;20020;-62
2022/06/13 22:49:58;;;;;;;;;;;;;;;18.46;41.06;100772.94;10367829;28;19929;-62
2022/06/13 22:55:01;;;;;;;;;;;;;;;18.43;41.17;100772.44;10369974;28;19933;-62
2022/06/13 23:00:04;;;;;;;;;;;;;;;18.38;41.73;100776.44;10368321;28;19968;-62
2022/06/13 23:05:05;;;;;;;;;;;;;;;18.32;42.34;100782.50;10372640;28;20008;-62
2022/06/13 23:10:07;;;;;;;;;;;;;;;18.34;41.66;100772.38;10371600;28;19935;-61
2022/06/13 23:15:08;;;;;;;;;;;;;;;18.28;41.88;100767.63;10372189;28;19929;-62
2022/06/13 23:20:10;;;;;;;;;;;;;;;18.24;42.03;100778.91;10372333;28;20429;-62
2022/06/13 23:25:12;;;;;;;;;;;;;;;18.22;42.36;100775.53;10370143;28;19929;-62
2022/06/13 23:30:13;;;;;;;;;;;;;;;18.16;42.04;100777.03;10374523;28;20046;-62
2022/06/13 23:35:15;;;;;;;;;;;;;;;18.06;42.04;100787.94;10377431;28;20542;-61
2022/06/13 23:40:16;;;;;;;;;;;;;;;17.77;43.09;100783.66;10379737;28;19952;-61
2022/06/13 23:45:17;;;;;;;;;;;;;;;17.76;43.12;100787.38;10379452;28;19973;-62
2022/06/13 23:50:37;;;;;;;;;;;;;;;17.79;42.98;100795.13;10380326;28;21457;-62
2022/06/13 23:55:39;;;;;;;;;;;;;;;17.75;43.12;100790.22;10378502;28;19957;-62
